sensor_id;sensor_type;location;lat;lon;timestamp;P1;durP1;ratioP1;P2;durP2;ratioP2
80567;SDS011;69922;45.656;25.586;2024-02-15T00:00:40;6.00;;;3.40;;
80567;SDS011;69922;45.656;25.586;2024-02-15T00:02:08;6.30;;;3.70;;
80567;SDS011;69922;45.656;25.586;2024-02-15T00:03:15;5.80;;;3.50;;
80567;SDS011;69922;45.656;25.586;2024-02-15T00:04:23;12.70;;;4.40;;
80567;SDS011;69922;45.656;25.586;2024-02-15T00:05:31;7.10;;;4.50;;
80567;SDS011;69922;45.656;25.586;2024-02-15T00:06:44;7.20;;;3.40;;
80567;SDS011;69922;45.656;25.586;2024-02-15T00:07:52;7.70;;;3.80;;
80567;SDS011;69922;45.656;25.586;2024-02-15T00:08:58;6.80;;;3.80;;
80567;SDS011;69922;45.656;25.586;2024-02-15T00:10:07;6.20;;;3.90;;
80567;SDS011;69922;45.656;25.586;2024-02-15T00:11:14;8.90;;;4.00;;
80567;SDS011;69922;45.656;25.586;2024-02-15T00:12:22;6.20;;;3.60;;
80567;SDS011;69922;45.656;25.586;2024-02-15T00:13:30;7.10;;;3.80;;
80567;SDS011;69922;45.656;25.586;2024-02-15T00:14:38;6.90;;;4.30;;
80567;SDS011;69922;45.656;25.586;2024-02-15T00:15:48;5.30;;;3.30;;
80567;SDS011;69922;45.656;25.586;2024-02-15T00:16:55;6.80;;;3.70;;
80567;SDS011;69922;45.656;25.586;2024-02-15T00:18:03;5.90;;;3.70;;
80567;SDS011;69922;45.656;25.586;2024-02-15T00:19:13;6.40;;;4.20;;
80567;SDS011;69922;45.656;25.586;2024-02-15T00:20:23;6.80;;;3.90;;
80567;SDS011;69922;45.656;25.586;2024-02-15T00:21:30;6.20;;;3.80;;
80567;SDS011;69922;45.656;25.586;2024-02-15T00:22:37;7.20;;;4.30;;
80567;SDS011;69922;45.656;25.586;2024-02-15T00:23:46;8.30;;;3.80;;
80567;SDS011;69922;45.656;25.586;2024-02-15T00:24:54;5.60;;;3.40;;
80567;SDS011;69922;45.656;25.586;2024-02-15T00:26:00;5.50;;;4.00;;
80567;SDS011;69922;45.656;25.586;2024-02-15T00:27:07;6.40;;;4.20;;
80567;SDS011;69922;45.656;25.586;2024-02-15T00:28:17;8.60;;;4.00;;
80567;SDS011;69922;45.656;25.586;2024-02-15T00:29:24;5.70;;;3.80;;
80567;SDS011;69922;45.656;25.586;2024-02-15T00:30:33;5.70;;;3.70;;
80567;SDS011;69922;45.656;25.586;2024-02-15T00:31:40;5.80;;;3.50;;
80567;SDS011;69922;45.656;25.586;2024-02-15T00:32:48;6.60;;;4.50;;
80567;SDS011;69922;45.656;25.586;2024-02-15T00:33:57;6.00;;;3.80;;
80567;SDS011;69922;45.656;25.586;2024-02-15T00:35:05;6.30;;;3.50;;
80567;SDS011;69922;45.656;25.586;2024-02-15T00:36:16;6.40;;;4.00;;
80567;SDS011;69922;45.656;25.586;2024-02-15T00:37:22;5.30;;;3.70;;
80567;SDS011;69922;45.656;25.586;2024-02-15T00:38:29;7.00;;;4.00;;
80567;SDS011;69922;45.656;25.586;2024-02-15T00:39:37;4.30;;;3.40;;
80567;SDS011;69922;45.656;25.586;2024-02-15T00:40:44;6.50;;;3.80;;
80567;SDS011;69922;45.656;25.586;2024-02-15T00:41:51;9.10;;;4.60;;
80567;SDS011;69922;45.656;25.586;2024-02-15T00:43:01;5.90;;;3.60;;
80567;SDS011;69922;45.656;25.586;2024-02-15T00:44:09;5.80;;;4.00;;
80567;SDS011;69922;45.656;25.586;2024-02-15T00:45:16;7.20;;;4.10;;
80567;SDS011;69922;45.656;25.586;2024-02-15T00:46:25;7.00;;;3.60;;
80567;SDS011;69922;45.656;25.586;2024-02-15T00:47:34;7.50;;;3.90;;
80567;SDS011;69922;45.656;25.586;2024-02-15T00:48:43;6.60;;;4.00;;
80567;SDS011;69922;45.656;25.586;2024-02-15T00:49:50;7.30;;;4.10;;
80567;SDS011;69922;45.656;25.586;2024-02-15T00:50:58;6.00;;;3.50;;
80567;SDS011;69922;45.656;25.586;2024-02-15T00:52:06;6.30;;;4.00;;
80567;SDS011;69922;45.656;25.586;2024-02-15T00:53:14;6.00;;;3.90;;
80567;SDS011;69922;45.656;25.586;2024-02-15T00:54:21;8.20;;;4.10;;
80567;SDS011;69922;45.656;25.586;2024-02-15T00:55:28;5.30;;;3.60;;
80567;SDS011;69922;45.656;25.586;2024-02-15T00:56:36;5.70;;;3.50;;
80567;SDS011;69922;45.656;25.586;2024-02-15T00:57:43;9.20;;;4.00;;
80567;SDS011;69922;45.656;25.586;2024-02-15T00:58:49;7.20;;;4.00;;
80567;SDS011;69922;45.656;25.586;2024-02-15T00:59:56;6.70;;;4.20;;
80567;SDS011;69922;45.656;25.586;2024-02-15T01:01:05;7.50;;;4.10;;
80567;SDS011;69922;45.656;25.586;2024-02-15T01:02:13;7.90;;;4.60;;
80567;SDS011;69922;45.656;25.586;2024-02-15T01:03:20;7.20;;;4.20;;
80567;SDS011;69922;45.656;25.586;2024-02-15T01:04:27;6.00;;;3.80;;
80567;SDS011;69922;45.656;25.586;2024-02-15T01:05:34;7.50;;;4.00;;
80567;SDS011;69922;45.656;25.586;2024-02-15T01:06:41;8.50;;;4.40;;
80567;SDS011;69922;45.656;25.586;2024-02-15T01:07:48;7.10;;;3.90;;
80567;SDS011;69922;45.656;25.586;2024-02-15T01:08:55;7.40;;;4.20;;
80567;SDS011;69922;45.656;25.586;2024-02-15T01:10:04;6.30;;;3.90;;
80567;SDS011;69922;45.656;25.586;2024-02-15T01:11:15;6.70;;;3.80;;
80567;SDS011;69922;45.656;25.586;2024-02-15T01:12:22;8.80;;;4.20;;
80567;SDS011;69922;45.656;25.586;2024-02-15T01:13:29;7.00;;;3.70;;
80567;SDS011;69922;45.656;25.586;2024-02-15T01:14:35;6.00;;;3.80;;
80567;SDS011;69922;45.656;25.586;2024-02-15T01:15:43;5.40;;;4.00;;
80567;SDS011;69922;45.656;25.586;2024-02-15T01:16:51;8.10;;;4.00;;
80567;SDS011;69922;45.656;25.586;2024-02-15T01:17:59;7.20;;;4.00;;
80567;SDS011;69922;45.656;25.586;2024-02-15T01:19:06;8.00;;;4.70;;
80567;SDS011;69922;45.656;25.586;2024-02-15T01:20:13;6.10;;;3.50;;
80567;SDS011;69922;45.656;25.586;2024-02-15T01:21:20;7.00;;;3.60;;
80567;SDS011;69922;45.656;25.586;2024-02-15T01:22:27;8.90;;;4.40;;
80567;SDS011;69922;45.656;25.586;2024-02-15T01:23:34;7.30;;;4.80;;
80567;SDS011;69922;45.656;25.586;2024-02-15T01:24:41;6.10;;;4.00;;
80567;SDS011;69922;45.656;25.586;2024-02-15T01:25:49;7.30;;;4.10;;
80567;SDS011;69922;45.656;25.586;2024-02-15T01:26:56;5.80;;;4.00;;
80567;SDS011;69922;45.656;25.586;2024-02-15T01:28:05;5.90;;;3.40;;
80567;SDS011;69922;45.656;25.586;2024-02-15T01:29:13;7.20;;;4.50;;
80567;SDS011;69922;45.656;25.586;2024-02-15T01:30:20;7.20;;;4.60;;
80567;SDS011;69922;45.656;25.586;2024-02-15T01:31:28;6.70;;;4.10;;
80567;SDS011;69922;45.656;25.586;2024-02-15T01:32:35;7.90;;;4.40;;
80567;SDS011;69922;45.656;25.586;2024-02-15T01:33:44;6.20;;;3.80;;
80567;SDS011;69922;45.656;25.586;2024-02-15T01:34:52;7.80;;;4.10;;
80567;SDS011;69922;45.656;25.586;2024-02-15T01:35:59;6.70;;;4.00;;
80567;SDS011;69922;45.656;25.586;2024-02-15T01:37:06;6.60;;;3.90;;
80567;SDS011;69922;45.656;25.586;2024-02-15T01:38:13;5.50;;;3.60;;
80567;SDS011;69922;45.656;25.586;2024-02-15T01:39:20;6.70;;;4.40;;
80567;SDS011;69922;45.656;25.586;2024-02-15T01:40:27;8.60;;;3.70;;
80567;SDS011;69922;45.656;25.586;2024-02-15T01:41:34;5.70;;;3.00;;
80567;SDS011;69922;45.656;25.586;2024-02-15T01:42:42;5.90;;;4.00;;
80567;SDS011;69922;45.656;25.586;2024-02-15T01:43:56;8.20;;;4.40;;
80567;SDS011;69922;45.656;25.586;2024-02-15T01:45:02;5.40;;;3.50;;
80567;SDS011;69922;45.656;25.586;2024-02-15T01:46:10;5.70;;;3.60;;
80567;SDS011;69922;45.656;25.586;2024-02-15T01:47:18;5.80;;;4.00;;
80567;SDS011;69922;45.656;25.586;2024-02-15T01:48:26;6.60;;;3.80;;
80567;SDS011;69922;45.656;25.586;2024-02-15T01:49:34;6.20;;;3.40;;
80567;SDS011;69922;45.656;25.586;2024-02-15T01:50:41;5.40;;;4.10;;
80567;SDS011;69922;45.656;25.586;2024-02-15T01:51:48;7.00;;;3.60;;
80567;SDS011;69922;45.656;25.586;2024-02-15T01:52:56;6.40;;;3.50;;
80567;SDS011;69922;45.656;25.586;2024-02-15T01:54:05;4.80;;;3.30;;
80567;SDS011;69922;45.656;25.586;2024-02-15T01:55:12;5.90;;;3.60;;
80567;SDS011;69922;45.656;25.586;2024-02-15T01:56:22;7.50;;;3.50;;
80567;SDS011;69922;45.656;25.586;2024-02-15T01:57:33;5.30;;;3.40;;
80567;SDS011;69922;45.656;25.586;2024-02-15T01:58:43;5.80;;;3.30;;
80567;SDS011;69922;45.656;25.586;2024-02-15T01:59:51;6.30;;;4.10;;
80567;SDS011;69922;45.656;25.586;2024-02-15T02:00:59;6.40;;;3.70;;
80567;SDS011;69922;45.656;25.586;2024-02-15T02:02:08;6.40;;;4.20;;
80567;SDS011;69922;45.656;25.586;2024-02-15T02:03:17;4.20;;;3.00;;
80567;SDS011;69922;45.656;25.586;2024-02-15T02:04:26;5.10;;;3.40;;
80567;SDS011;69922;45.656;25.586;2024-02-15T02:05:33;7.10;;;3.90;;
80567;SDS011;69922;45.656;25.586;2024-02-15T02:06:39;6.30;;;3.90;;
80567;SDS011;69922;45.656;25.586;2024-02-15T02:07:46;4.90;;;3.40;;
80567;SDS011;69922;45.656;25.586;2024-02-15T02:08:53;6.20;;;3.70;;
80567;SDS011;69922;45.656;25.586;2024-02-15T02:10:01;7.30;;;3.70;;
80567;SDS011;69922;45.656;25.586;2024-02-15T02:11:10;5.60;;;3.90;;
80567;SDS011;69922;45.656;25.586;2024-02-15T02:12:18;7.30;;;3.70;;
80567;SDS011;69922;45.656;25.586;2024-02-15T02:13:25;6.50;;;4.20;;
80567;SDS011;69922;45.656;25.586;2024-02-15T02:14:34;6.60;;;4.00;;
80567;SDS011;69922;45.656;25.586;2024-02-15T02:15:41;4.90;;;3.40;;
80567;SDS011;69922;45.656;25.586;2024-02-15T02:16:47;7.10;;;3.60;;
80567;SDS011;69922;45.656;25.586;2024-02-15T02:17:54;5.80;;;3.60;;
80567;SDS011;69922;45.656;25.586;2024-02-15T02:19:01;7.00;;;3.90;;
80567;SDS011;69922;45.656;25.586;2024-02-15T02:20:13;5.60;;;3.70;;
80567;SDS011;69922;45.656;25.586;2024-02-15T02:21:21;5.80;;;3.60;;
80567;SDS011;69922;45.656;25.586;2024-02-15T02:22:29;6.10;;;3.80;;
80567;SDS011;69922;45.656;25.586;2024-02-15T02:23:36;8.40;;;4.20;;
80567;SDS011;69922;45.656;25.586;2024-02-15T02:26:07;6.60;;;3.90;;
80567;SDS011;69922;45.656;25.586;2024-02-15T02:28:22;5.30;;;3.60;;
80567;SDS011;69922;45.656;25.586;2024-02-15T02:29:30;5.20;;;3.60;;
80567;SDS011;69922;45.656;25.586;2024-02-15T02:30:38;5.40;;;3.60;;
80567;SDS011;69922;45.656;25.586;2024-02-15T02:32:51;6.50;;;3.90;;
80567;SDS011;69922;45.656;25.586;2024-02-15T02:33:58;6.10;;;3.70;;
80567;SDS011;69922;45.656;25.586;2024-02-15T02:35:06;6.10;;;3.60;;
80567;SDS011;69922;45.656;25.586;2024-02-15T02:36:17;6.10;;;3.70;;
80567;SDS011;69922;45.656;25.586;2024-02-15T02:37:24;5.50;;;3.40;;
80567;SDS011;69922;45.656;25.586;2024-02-15T02:38:32;7.10;;;3.80;;
80567;SDS011;69922;45.656;25.586;2024-02-15T02:39:42;6.70;;;3.50;;
80567;SDS011;69922;45.656;25.586;2024-02-15T02:41:55;6.40;;;3.40;;
80567;SDS011;69922;45.656;25.586;2024-02-15T02:43:05;5.90;;;3.20;;
80567;SDS011;69922;45.656;25.586;2024-02-15T02:44:11;7.30;;;3.80;;
80567;SDS011;69922;45.656;25.586;2024-02-15T02:45:19;5.80;;;3.50;;
80567;SDS011;69922;45.656;25.586;2024-02-15T02:46:28;5.60;;;3.80;;
80567;SDS011;69922;45.656;25.586;2024-02-15T02:47:34;5.60;;;3.10;;
80567;SDS011;69922;45.656;25.586;2024-02-15T02:48:41;5.10;;;3.70;;
80567;SDS011;69922;45.656;25.586;2024-02-15T02:49:48;4.30;;;3.20;;
80567;SDS011;69922;45.656;25.586;2024-02-15T02:50:56;5.20;;;3.90;;
80567;SDS011;69922;45.656;25.586;2024-02-15T02:52:04;7.20;;;3.80;;
80567;SDS011;69922;45.656;25.586;2024-02-15T02:53:12;6.50;;;3.70;;
80567;SDS011;69922;45.656;25.586;2024-02-15T02:54:20;6.50;;;3.80;;
80567;SDS011;69922;45.656;25.586;2024-02-15T02:55:26;7.10;;;4.00;;
80567;SDS011;69922;45.656;25.586;2024-02-15T02:56:33;6.10;;;3.80;;
80567;SDS011;69922;45.656;25.586;2024-02-15T02:57:40;5.70;;;3.50;;
80567;SDS011;69922;45.656;25.586;2024-02-15T02:58:48;7.20;;;4.30;;
80567;SDS011;69922;45.656;25.586;2024-02-15T02:59:57;4.70;;;3.30;;
80567;SDS011;69922;45.656;25.586;2024-02-15T03:01:04;6.70;;;3.40;;
80567;SDS011;69922;45.656;25.586;2024-02-15T03:02:12;5.70;;;3.60;;
80567;SDS011;69922;45.656;25.586;2024-02-15T03:03:19;4.30;;;3.10;;
80567;SDS011;69922;45.656;25.586;2024-02-15T03:04:29;5.10;;;3.20;;
80567;SDS011;69922;45.656;25.586;2024-02-15T03:05:38;4.40;;;3.00;;
80567;SDS011;69922;45.656;25.586;2024-02-15T03:06:45;5.20;;;3.30;;
80567;SDS011;69922;45.656;25.586;2024-02-15T03:07:52;7.20;;;3.60;;
80567;SDS011;69922;45.656;25.586;2024-02-15T03:08:59;5.20;;;3.40;;
80567;SDS011;69922;45.656;25.586;2024-02-15T03:10:08;5.20;;;3.70;;
80567;SDS011;69922;45.656;25.586;2024-02-15T03:11:19;5.50;;;3.50;;
80567;SDS011;69922;45.656;25.586;2024-02-15T03:12:25;5.30;;;3.70;;
80567;SDS011;69922;45.656;25.586;2024-02-15T03:13:34;5.70;;;3.20;;
80567;SDS011;69922;45.656;25.586;2024-02-15T03:14:41;6.00;;;3.40;;
80567;SDS011;69922;45.656;25.586;2024-02-15T03:15:48;5.60;;;2.90;;
80567;SDS011;69922;45.656;25.586;2024-02-15T03:16:57;5.30;;;2.90;;
80567;SDS011;69922;45.656;25.586;2024-02-15T03:18:04;5.30;;;3.00;;
80567;SDS011;69922;45.656;25.586;2024-02-15T03:19:14;5.80;;;3.40;;
80567;SDS011;69922;45.656;25.586;2024-02-15T03:20:21;5.40;;;3.20;;
80567;SDS011;69922;45.656;25.586;2024-02-15T03:21:29;4.00;;;2.60;;
80567;SDS011;69922;45.656;25.586;2024-02-15T03:22:36;4.00;;;2.90;;
80567;SDS011;69922;45.656;25.586;2024-02-15T03:23:43;6.40;;;3.00;;
80567;SDS011;69922;45.656;25.586;2024-02-15T03:24:50;3.90;;;2.70;;
80567;SDS011;69922;45.656;25.586;2024-02-15T03:25:57;5.20;;;3.10;;
80567;SDS011;69922;45.656;25.586;2024-02-15T03:27:07;6.50;;;3.40;;
80567;SDS011;69922;45.656;25.586;2024-02-15T03:28:15;6.00;;;2.90;;
80567;SDS011;69922;45.656;25.586;2024-02-15T03:29:22;5.60;;;3.10;;
80567;SDS011;69922;45.656;25.586;2024-02-15T03:30:30;4.30;;;3.30;;
80567;SDS011;69922;45.656;25.586;2024-02-15T03:31:39;3.90;;;2.70;;
80567;SDS011;69922;45.656;25.586;2024-02-15T03:32:45;4.80;;;3.20;;
80567;SDS011;69922;45.656;25.586;2024-02-15T03:33:54;4.80;;;3.10;;
80567;SDS011;69922;45.656;25.586;2024-02-15T03:35:01;4.30;;;2.60;;
80567;SDS011;69922;45.656;25.586;2024-02-15T03:36:08;7.00;;;3.20;;
80567;SDS011;69922;45.656;25.586;2024-02-15T03:37:21;5.60;;;3.60;;
80567;SDS011;69922;45.656;25.586;2024-02-15T03:38:29;5.90;;;3.50;;
80567;SDS011;69922;45.656;25.586;2024-02-15T03:39:36;6.60;;;3.60;;
80567;SDS011;69922;45.656;25.586;2024-02-15T03:40:43;5.30;;;3.10;;
80567;SDS011;69922;45.656;25.586;2024-02-15T03:41:50;4.80;;;3.10;;
80567;SDS011;69922;45.656;25.586;2024-02-15T03:42:59;4.60;;;3.10;;
80567;SDS011;69922;45.656;25.586;2024-02-15T03:44:06;5.30;;;3.20;;
80567;SDS011;69922;45.656;25.586;2024-02-15T03:45:14;5.60;;;3.30;;
80567;SDS011;69922;45.656;25.586;2024-02-15T03:46:22;5.70;;;3.70;;
80567;SDS011;69922;45.656;25.586;2024-02-15T03:47:29;5.30;;;2.60;;
80567;SDS011;69922;45.656;25.586;2024-02-15T03:48:37;4.80;;;3.00;;
80567;SDS011;69922;45.656;25.586;2024-02-15T03:49:51;5.00;;;3.10;;
80567;SDS011;69922;45.656;25.586;2024-02-15T03:50:58;6.20;;;3.10;;
80567;SDS011;69922;45.656;25.586;2024-02-15T03:52:06;4.80;;;3.00;;
80567;SDS011;69922;45.656;25.586;2024-02-15T03:53:16;7.40;;;3.50;;
80567;SDS011;69922;45.656;25.586;2024-02-15T03:54:24;4.90;;;3.30;;
80567;SDS011;69922;45.656;25.586;2024-02-15T03:55:31;3.90;;;2.90;;
80567;SDS011;69922;45.656;25.586;2024-02-15T03:56:47;5.10;;;2.90;;
80567;SDS011;69922;45.656;25.586;2024-02-15T03:57:57;5.90;;;3.30;;
80567;SDS011;69922;45.656;25.586;2024-02-15T03:59:05;5.40;;;3.20;;
80567;SDS011;69922;45.656;25.586;2024-02-15T04:00:14;4.10;;;2.80;;
80567;SDS011;69922;45.656;25.586;2024-02-15T04:01:30;7.20;;;3.20;;
80567;SDS011;69922;45.656;25.586;2024-02-15T04:02:38;4.30;;;2.70;;
80567;SDS011;69922;45.656;25.586;2024-02-15T04:03:46;4.10;;;3.10;;
80567;SDS011;69922;45.656;25.586;2024-02-15T04:04:56;5.70;;;3.00;;
80567;SDS011;69922;45.656;25.586;2024-02-15T04:06:03;5.00;;;3.00;;
80567;SDS011;69922;45.656;25.586;2024-02-15T04:07:10;4.80;;;3.30;;
80567;SDS011;69922;45.656;25.586;2024-02-15T04:08:18;6.90;;;3.50;;
80567;SDS011;69922;45.656;25.586;2024-02-15T04:09:25;5.90;;;3.60;;
80567;SDS011;69922;45.656;25.586;2024-02-15T04:10:31;4.50;;;2.90;;
80567;SDS011;69922;45.656;25.586;2024-02-15T04:11:38;5.90;;;3.30;;
80567;SDS011;69922;45.656;25.586;2024-02-15T04:12:45;4.40;;;3.40;;
80567;SDS011;69922;45.656;25.586;2024-02-15T04:13:52;6.80;;;4.30;;
80567;SDS011;69922;45.656;25.586;2024-02-15T04:15:02;4.10;;;2.60;;
80567;SDS011;69922;45.656;25.586;2024-02-15T04:16:17;4.90;;;3.10;;
80567;SDS011;69922;45.656;25.586;2024-02-15T04:17:25;7.00;;;3.80;;
80567;SDS011;69922;45.656;25.586;2024-02-15T04:18:31;5.60;;;3.90;;
80567;SDS011;69922;45.656;25.586;2024-02-15T04:19:39;6.30;;;3.50;;
80567;SDS011;69922;45.656;25.586;2024-02-15T04:20:47;4.90;;;3.10;;
80567;SDS011;69922;45.656;25.586;2024-02-15T04:23:01;7.30;;;3.60;;
80567;SDS011;69922;45.656;25.586;2024-02-15T04:24:09;6.20;;;3.50;;
80567;SDS011;69922;45.656;25.586;2024-02-15T04:25:16;6.10;;;3.60;;
80567;SDS011;69922;45.656;25.586;2024-02-15T04:26:24;7.20;;;3.50;;
80567;SDS011;69922;45.656;25.586;2024-02-15T04:27:31;6.40;;;3.80;;
80567;SDS011;69922;45.656;25.586;2024-02-15T04:28:39;6.00;;;3.40;;
80567;SDS011;69922;45.656;25.586;2024-02-15T04:29:45;5.80;;;3.40;;
80567;SDS011;69922;45.656;25.586;2024-02-15T04:32:00;7.20;;;4.70;;
80567;SDS011;69922;45.656;25.586;2024-02-15T04:33:08;7.20;;;3.30;;
80567;SDS011;69922;45.656;25.586;2024-02-15T04:34:16;5.90;;;4.00;;
80567;SDS011;69922;45.656;25.586;2024-02-15T04:35:24;7.70;;;3.80;;
80567;SDS011;69922;45.656;25.586;2024-02-15T04:36:32;7.50;;;3.70;;
80567;SDS011;69922;45.656;25.586;2024-02-15T04:37:40;9.30;;;3.80;;
80567;SDS011;69922;45.656;25.586;2024-02-15T04:38:47;6.40;;;3.70;;
80567;SDS011;69922;45.656;25.586;2024-02-15T04:39:55;8.80;;;3.90;;
80567;SDS011;69922;45.656;25.586;2024-02-15T04:41:01;8.80;;;3.90;;
80567;SDS011;69922;45.656;25.586;2024-02-15T04:42:13;8.60;;;4.70;;
80567;SDS011;69922;45.656;25.586;2024-02-15T04:43:22;7.90;;;4.00;;
80567;SDS011;69922;45.656;25.586;2024-02-15T04:44:30;18.70;;;4.90;;
80567;SDS011;69922;45.656;25.586;2024-02-15T04:45:40;12.40;;;5.60;;
80567;SDS011;69922;45.656;25.586;2024-02-15T04:46:46;10.80;;;4.90;;
80567;SDS011;69922;45.656;25.586;2024-02-15T04:47:53;13.60;;;5.90;;
80567;SDS011;69922;45.656;25.586;2024-02-15T04:49:02;12.60;;;6.30;;
80567;SDS011;69922;45.656;25.586;2024-02-15T04:50:11;17.90;;;6.70;;
80567;SDS011;69922;45.656;25.586;2024-02-15T04:51:18;11.80;;;5.50;;
80567;SDS011;69922;45.656;25.586;2024-02-15T04:52:26;8.50;;;5.40;;
80567;SDS011;69922;45.656;25.586;2024-02-15T04:53:35;9.40;;;5.00;;
80567;SDS011;69922;45.656;25.586;2024-02-15T04:54:43;13.40;;;6.00;;
80567;SDS011;69922;45.656;25.586;2024-02-15T04:55:49;12.40;;;6.00;;
80567;SDS011;69922;45.656;25.586;2024-02-15T04:56:56;10.80;;;5.10;;
80567;SDS011;69922;45.656;25.586;2024-02-15T04:58:03;9.60;;;5.00;;
80567;SDS011;69922;45.656;25.586;2024-02-15T04:59:10;8.40;;;5.30;;
80567;SDS011;69922;45.656;25.586;2024-02-15T05:00:20;12.40;;;5.00;;
80567;SDS011;69922;45.656;25.586;2024-02-15T05:01:30;6.40;;;4.20;;
80567;SDS011;69922;45.656;25.586;2024-02-15T05:02:38;7.00;;;4.50;;
80567;SDS011;69922;45.656;25.586;2024-02-15T05:03:49;7.10;;;4.00;;
80567;SDS011;69922;45.656;25.586;2024-02-15T05:04:55;9.90;;;4.40;;
80567;SDS011;69922;45.656;25.586;2024-02-15T05:06:02;9.50;;;6.00;;
80567;SDS011;69922;45.656;25.586;2024-02-15T05:07:13;9.50;;;5.30;;
80567;SDS011;69922;45.656;25.586;2024-02-15T05:08:22;10.10;;;4.20;;
80567;SDS011;69922;45.656;25.586;2024-02-15T05:09:29;8.90;;;5.00;;
80567;SDS011;69922;45.656;25.586;2024-02-15T05:10:36;7.00;;;4.80;;
80567;SDS011;69922;45.656;25.586;2024-02-15T05:11:44;7.90;;;4.80;;
80567;SDS011;69922;45.656;25.586;2024-02-15T05:12:54;15.60;;;6.60;;
80567;SDS011;69922;45.656;25.586;2024-02-15T05:14:02;10.60;;;5.90;;
80567;SDS011;69922;45.656;25.586;2024-02-15T05:15:11;9.50;;;4.50;;
80567;SDS011;69922;45.656;25.586;2024-02-15T05:16:22;9.60;;;4.90;;
80567;SDS011;69922;45.656;25.586;2024-02-15T05:17:29;8.20;;;4.60;;
80567;SDS011;69922;45.656;25.586;2024-02-15T05:18:38;7.20;;;4.00;;
80567;SDS011;69922;45.656;25.586;2024-02-15T05:19:45;6.80;;;3.70;;
80567;SDS011;69922;45.656;25.586;2024-02-15T05:20:52;5.40;;;3.40;;
80567;SDS011;69922;45.656;25.586;2024-02-15T05:21:59;6.60;;;4.40;;
80567;SDS011;69922;45.656;25.586;2024-02-15T05:23:09;7.10;;;4.30;;
80567;SDS011;69922;45.656;25.586;2024-02-15T05:24:18;8.50;;;4.30;;
80567;SDS011;69922;45.656;25.586;2024-02-15T05:25:26;9.70;;;4.30;;
80567;SDS011;69922;45.656;25.586;2024-02-15T05:26:34;9.00;;;4.40;;
80567;SDS011;69922;45.656;25.586;2024-02-15T05:27:41;9.10;;;5.00;;
80567;SDS011;69922;45.656;25.586;2024-02-15T05:28:49;15.10;;;6.30;;
80567;SDS011;69922;45.656;25.586;2024-02-15T05:29:56;11.90;;;5.70;;
80567;SDS011;69922;45.656;25.586;2024-02-15T05:31:12;12.70;;;5.30;;
80567;SDS011;69922;45.656;25.586;2024-02-15T05:32:22;8.90;;;4.90;;
80567;SDS011;69922;45.656;25.586;2024-02-15T05:33:30;10.90;;;5.60;;
80567;SDS011;69922;45.656;25.586;2024-02-15T05:34:38;9.20;;;5.00;;
80567;SDS011;69922;45.656;25.586;2024-02-15T05:35:46;12.30;;;4.90;;
80567;SDS011;69922;45.656;25.586;2024-02-15T05:36:56;8.60;;;4.90;;
80567;SDS011;69922;45.656;25.586;2024-02-15T05:38:03;11.60;;;4.70;;
80567;SDS011;69922;45.656;25.586;2024-02-15T05:39:11;9.50;;;4.60;;
80567;SDS011;69922;45.656;25.586;2024-02-15T05:40:19;11.40;;;4.70;;
80567;SDS011;69922;45.656;25.586;2024-02-15T05:41:26;8.50;;;4.70;;
80567;SDS011;69922;45.656;25.586;2024-02-15T05:42:34;11.10;;;6.10;;
80567;SDS011;69922;45.656;25.586;2024-02-15T05:43:41;10.00;;;4.90;;
80567;SDS011;69922;45.656;25.586;2024-02-15T05:44:48;9.60;;;4.60;;
80567;SDS011;69922;45.656;25.586;2024-02-15T05:45:55;9.50;;;4.90;;
80567;SDS011;69922;45.656;25.586;2024-02-15T05:47:05;8.80;;;4.60;;
80567;SDS011;69922;45.656;25.586;2024-02-15T05:48:12;6.00;;;4.10;;
80567;SDS011;69922;45.656;25.586;2024-02-15T05:49:19;6.40;;;4.40;;
80567;SDS011;69922;45.656;25.586;2024-02-15T05:50:30;5.80;;;3.40;;
80567;SDS011;69922;45.656;25.586;2024-02-15T05:51:37;7.50;;;4.40;;
80567;SDS011;69922;45.656;25.586;2024-02-15T05:52:46;8.00;;;4.60;;
80567;SDS011;69922;45.656;25.586;2024-02-15T05:53:53;7.40;;;4.00;;
80567;SDS011;69922;45.656;25.586;2024-02-15T05:55:05;7.70;;;3.70;;
80567;SDS011;69922;45.656;25.586;2024-02-15T05:56:14;7.20;;;3.70;;
80567;SDS011;69922;45.656;25.586;2024-02-15T05:57:21;7.20;;;3.90;;
80567;SDS011;69922;45.656;25.586;2024-02-15T05:58:29;7.90;;;4.10;;
80567;SDS011;69922;45.656;25.586;2024-02-15T05:59:37;5.80;;;4.10;;
80567;SDS011;69922;45.656;25.586;2024-02-15T06:00:45;9.00;;;4.40;;
80567;SDS011;69922;45.656;25.586;2024-02-15T06:01:54;8.40;;;4.60;;
80567;SDS011;69922;45.656;25.586;2024-02-15T06:03:01;6.50;;;3.20;;
80567;SDS011;69922;45.656;25.586;2024-02-15T06:04:08;7.30;;;3.50;;
80567;SDS011;69922;45.656;25.586;2024-02-15T06:05:15;5.90;;;3.80;;
80567;SDS011;69922;45.656;25.586;2024-02-15T06:06:23;5.50;;;3.80;;
80567;SDS011;69922;45.656;25.586;2024-02-15T06:07:32;7.70;;;4.40;;
80567;SDS011;69922;45.656;25.586;2024-02-15T06:08:40;10.90;;;4.30;;
80567;SDS011;69922;45.656;25.586;2024-02-15T06:09:53;7.50;;;3.70;;
80567;SDS011;69922;45.656;25.586;2024-02-15T06:10:59;7.80;;;3.50;;
80567;SDS011;69922;45.656;25.586;2024-02-15T06:12:07;7.30;;;4.00;;
80567;SDS011;69922;45.656;25.586;2024-02-15T06:13:14;7.10;;;3.70;;
80567;SDS011;69922;45.656;25.586;2024-02-15T06:14:21;7.90;;;4.70;;
80567;SDS011;69922;45.656;25.586;2024-02-15T06:15:27;6.70;;;3.80;;
80567;SDS011;69922;45.656;25.586;2024-02-15T06:16:40;8.80;;;5.10;;
80567;SDS011;69922;45.656;25.586;2024-02-15T06:17:50;10.50;;;5.00;;
80567;SDS011;69922;45.656;25.586;2024-02-15T06:18:58;10.80;;;5.40;;
80567;SDS011;69922;45.656;25.586;2024-02-15T06:20:06;11.00;;;5.20;;
80567;SDS011;69922;45.656;25.586;2024-02-15T06:21:16;10.80;;;5.10;;
80567;SDS011;69922;45.656;25.586;2024-02-15T06:23:31;12.60;;;4.50;;
80567;SDS011;69922;45.656;25.586;2024-02-15T06:24:38;10.80;;;5.80;;
80567;SDS011;69922;45.656;25.586;2024-02-15T06:25:50;17.40;;;6.50;;
80567;SDS011;69922;45.656;25.586;2024-02-15T06:26:58;8.00;;;5.20;;
80567;SDS011;69922;45.656;25.586;2024-02-15T06:28:07;10.50;;;5.10;;
80567;SDS011;69922;45.656;25.586;2024-02-15T06:29:32;10.60;;;4.60;;
80567;SDS011;69922;45.656;25.586;2024-02-15T06:30:59;11.20;;;4.70;;
80567;SDS011;69922;45.656;25.586;2024-02-15T06:32:24;10.80;;;4.80;;
80567;SDS011;69922;45.656;25.586;2024-02-15T06:33:51;8.30;;;4.70;;
80567;SDS011;69922;45.656;25.586;2024-02-15T06:35:17;13.80;;;5.10;;
80567;SDS011;69922;45.656;25.586;2024-02-15T06:36:54;10.40;;;4.20;;
80567;SDS011;69922;45.656;25.586;2024-02-15T06:38:20;7.90;;;4.20;;
80567;SDS011;69922;45.656;25.586;2024-02-15T06:39:46;9.60;;;4.20;;
80567;SDS011;69922;45.656;25.586;2024-02-15T06:40:54;8.80;;;5.00;;
80567;SDS011;69922;45.656;25.586;2024-02-15T06:42:02;9.50;;;4.80;;
80567;SDS011;69922;45.656;25.586;2024-02-15T06:43:11;8.40;;;4.30;;
80567;SDS011;69922;45.656;25.586;2024-02-15T06:44:18;8.10;;;4.50;;
80567;SDS011;69922;45.656;25.586;2024-02-15T06:45:25;9.90;;;5.00;;
80567;SDS011;69922;45.656;25.586;2024-02-15T06:46:33;8.70;;;4.60;;
80567;SDS011;69922;45.656;25.586;2024-02-15T06:47:43;7.30;;;4.30;;
80567;SDS011;69922;45.656;25.586;2024-02-15T06:48:50;7.90;;;4.60;;
80567;SDS011;69922;45.656;25.586;2024-02-15T06:50:00;8.40;;;4.10;;
80567;SDS011;69922;45.656;25.586;2024-02-15T06:51:07;8.60;;;4.40;;
80567;SDS011;69922;45.656;25.586;2024-02-15T06:52:17;5.80;;;4.10;;
80567;SDS011;69922;45.656;25.586;2024-02-15T06:53:25;11.10;;;4.90;;
80567;SDS011;69922;45.656;25.586;2024-02-15T06:54:32;7.50;;;4.40;;